sensor_id;sensor_type;location;lat;lon;timestamp;P1;durP1;ratioP1;P2;durP2;ratioP2
17965;SDS011;9108;53.204;10.424;2023-08-31T00:00:18;35.90;;;19.75;;
17965;SDS011;9108;53.204;10.424;2023-08-31T00:02:47;35.22;;;19.08;;
17965;SDS011;9108;53.204;10.424;2023-08-31T00:05:14;32.25;;;18.48;;
17965;SDS011;9108;53.204;10.424;2023-08-31T00:07:41;35.75;;;19.58;;
17965;SDS011;9108;53.204;10.424;2023-08-31T00:10:09;34.70;;;18.75;;
17965;SDS011;9108;53.204;10.424;2023-08-31T00:12:36;33.35;;;18.52;;
17965;SDS011;9108;53.204;10.424;2023-08-31T00:15:04;34.05;;;18.70;;
17965;SDS011;9108;53.204;10.424;2023-08-31T00:17:31;33.78;;;18.40;;
17965;SDS011;9108;53.204;10.424;2023-08-31T00:20:00;32.70;;;18.63;;
17965;SDS011;9108;53.204;10.424;2023-08-31T00:22:30;34.42;;;18.70;;
17965;SDS011;9108;53.204;10.424;2023-08-31T00:24:58;37.17;;;19.55;;
17965;SDS011;9108;53.204;10.424;2023-08-31T00:27:25;34.47;;;18.67;;
17965;SDS011;9108;53.204;10.424;2023-08-31T00:29:54;34.17;;;18.88;;
17965;SDS011;9108;53.204;10.424;2023-08-31T00:32:23;34.83;;;18.67;;
17965;SDS011;9108;53.204;10.424;2023-08-31T00:34:50;34.20;;;18.38;;
17965;SDS011;9108;53.204;10.424;2023-08-31T00:37:18;34.90;;;19.05;;
17965;SDS011;9108;53.204;10.424;2023-08-31T00:39:46;35.75;;;18.45;;
17965;SDS011;9108;53.204;10.424;2023-08-31T00:42:16;32.80;;;18.00;;
17965;SDS011;9108;53.204;10.424;2023-08-31T00:44:44;32.88;;;18.02;;
17965;SDS011;9108;53.204;10.424;2023-08-31T00:47:12;34.15;;;18.33;;
17965;SDS011;9108;53.204;10.424;2023-08-31T00:49:40;33.87;;;18.90;;
17965;SDS011;9108;53.204;10.424;2023-08-31T00:52:07;35.42;;;18.90;;
17965;SDS011;9108;53.204;10.424;2023-08-31T00:54:35;36.53;;;19.33;;
17965;SDS011;9108;53.204;10.424;2023-08-31T00:57:03;35.13;;;18.90;;
17965;SDS011;9108;53.204;10.424;2023-08-31T00:59:30;33.50;;;18.17;;
17965;SDS011;9108;53.204;10.424;2023-08-31T01:01:59;34.55;;;18.27;;
17965;SDS011;9108;53.204;10.424;2023-08-31T01:04:31;35.25;;;18.08;;
17965;SDS011;9108;53.204;10.424;2023-08-31T01:06:59;31.08;;;16.77;;
17965;SDS011;9108;53.204;10.424;2023-08-31T01:09:31;31.15;;;17.08;;
17965;SDS011;9108;53.204;10.424;2023-08-31T01:12:04;29.33;;;16.55;;
17965;SDS011;9108;53.204;10.424;2023-08-31T01:14:37;31.33;;;17.23;;
17965;SDS011;9108;53.204;10.424;2023-08-31T01:17:05;30.40;;;16.07;;
17965;SDS011;9108;53.204;10.424;2023-08-31T01:19:39;32.45;;;16.67;;
17965;SDS011;9108;53.204;10.424;2023-08-31T01:22:11;32.13;;;16.52;;
17965;SDS011;9108;53.204;10.424;2023-08-31T01:24:40;32.22;;;17.25;;
17965;SDS011;9108;53.204;10.424;2023-08-31T01:27:07;29.55;;;16.08;;
17965;SDS011;9108;53.204;10.424;2023-08-31T01:29:34;28.98;;;15.60;;
17965;SDS011;9108;53.204;10.424;2023-08-31T01:32:04;29.55;;;15.52;;
17965;SDS011;9108;53.204;10.424;2023-08-31T01:34:32;28.95;;;15.52;;
17965;SDS011;9108;53.204;10.424;2023-08-31T01:37:00;29.10;;;15.57;;
17965;SDS011;9108;53.204;10.424;2023-08-31T01:39:29;31.55;;;15.82;;
17965;SDS011;9108;53.204;10.424;2023-08-31T01:42:05;28.67;;;15.63;;
17965;SDS011;9108;53.204;10.424;2023-08-31T01:44:33;28.00;;;15.38;;
17965;SDS011;9108;53.204;10.424;2023-08-31T01:47:02;27.30;;;14.45;;
17965;SDS011;9108;53.204;10.424;2023-08-31T01:49:35;27.30;;;14.70;;
17965;SDS011;9108;53.204;10.424;2023-08-31T01:52:02;27.20;;;14.00;;
17965;SDS011;9108;53.204;10.424;2023-08-31T01:54:29;31.23;;;14.93;;
17965;SDS011;9108;53.204;10.424;2023-08-31T01:56:56;29.02;;;15.00;;
17965;SDS011;9108;53.204;10.424;2023-08-31T01:59:25;27.27;;;13.90;;
17965;SDS011;9108;53.204;10.424;2023-08-31T02:01:52;29.33;;;14.48;;
17965;SDS011;9108;53.204;10.424;2023-08-31T02:04:20;25.77;;;13.57;;
17965;SDS011;9108;53.204;10.424;2023-08-31T02:06:47;26.77;;;13.73;;
17965;SDS011;9108;53.204;10.424;2023-08-31T02:09:14;28.17;;;14.40;;
17965;SDS011;9108;53.204;10.424;2023-08-31T02:11:41;27.17;;;14.18;;
17965;SDS011;9108;53.204;10.424;2023-08-31T02:14:08;28.80;;;14.50;;
17965;SDS011;9108;53.204;10.424;2023-08-31T02:16:37;27.90;;;14.13;;
17965;SDS011;9108;53.204;10.424;2023-08-31T02:19:04;27.80;;;14.05;;
17965;SDS011;9108;53.204;10.424;2023-08-31T02:21:31;26.77;;;13.70;;
17965;SDS011;9108;53.204;10.424;2023-08-31T02:23:58;24.63;;;12.38;;
17965;SDS011;9108;53.204;10.424;2023-08-31T02:26:25;26.23;;;13.32;;
17965;SDS011;9108;53.204;10.424;2023-08-31T02:28:52;25.73;;;12.38;;
17965;SDS011;9108;53.204;10.424;2023-08-31T02:31:20;25.02;;;12.73;;
17965;SDS011;9108;53.204;10.424;2023-08-31T02:33:48;26.85;;;12.43;;
17965;SDS011;9108;53.204;10.424;2023-08-31T02:36:15;26.67;;;12.52;;
17965;SDS011;9108;53.204;10.424;2023-08-31T02:38:42;22.38;;;11.48;;
17965;SDS011;9108;53.204;10.424;2023-08-31T02:41:08;25.42;;;12.13;;
17965;SDS011;9108;53.204;10.424;2023-08-31T02:43:35;24.90;;;11.93;;
17965;SDS011;9108;53.204;10.424;2023-08-31T02:46:03;22.95;;;11.38;;
17965;SDS011;9108;53.204;10.424;2023-08-31T02:48:31;23.40;;;10.75;;
17965;SDS011;9108;53.204;10.424;2023-08-31T02:51:00;24.83;;;10.75;;
17965;SDS011;9108;53.204;10.424;2023-08-31T02:53:28;21.08;;;10.70;;
17965;SDS011;9108;53.204;10.424;2023-08-31T02:55:55;21.53;;;10.37;;
17965;SDS011;9108;53.204;10.424;2023-08-31T02:58:22;22.25;;;10.27;;
17965;SDS011;9108;53.204;10.424;2023-08-31T03:00:50;19.52;;;10.85;;
17965;SDS011;9108;53.204;10.424;2023-08-31T03:03:18;19.20;;;9.38;;
17965;SDS011;9108;53.204;10.424;2023-08-31T03:05:45;20.05;;;10.20;;
17965;SDS011;9108;53.204;10.424;2023-08-31T03:08:14;20.65;;;9.88;;
17965;SDS011;9108;53.204;10.424;2023-08-31T03:10:41;23.15;;;10.27;;
17965;SDS011;9108;53.204;10.424;2023-08-31T03:13:08;21.88;;;9.63;;
17965;SDS011;9108;53.204;10.424;2023-08-31T03:15:35;22.92;;;10.35;;
17965;SDS011;9108;53.204;10.424;2023-08-31T03:18:03;22.35;;;9.80;;
17965;SDS011;9108;53.204;10.424;2023-08-31T03:20:30;21.42;;;9.70;;
17965;SDS011;9108;53.204;10.424;2023-08-31T03:22:57;19.45;;;9.18;;
17965;SDS011;9108;53.204;10.424;2023-08-31T03:25:26;20.10;;;9.55;;
17965;SDS011;9108;53.204;10.424;2023-08-31T03:27:54;20.27;;;9.00;;
17965;SDS011;9108;53.204;10.424;2023-08-31T03:30:21;19.88;;;9.00;;
17965;SDS011;9108;53.204;10.424;2023-08-31T03:32:48;17.65;;;8.70;;
17965;SDS011;9108;53.204;10.424;2023-08-31T03:35:15;22.67;;;8.63;;
17965;SDS011;9108;53.204;10.424;2023-08-31T03:37:42;20.42;;;8.60;;
17965;SDS011;9108;53.204;10.424;2023-08-31T03:40:10;20.50;;;8.55;;
17965;SDS011;9108;53.204;10.424;2023-08-31T03:42:38;19.02;;;9.10;;
17965;SDS011;9108;53.204;10.424;2023-08-31T03:45:06;18.60;;;8.13;;
17965;SDS011;9108;53.204;10.424;2023-08-31T03:47:33;17.50;;;7.72;;
17965;SDS011;9108;53.204;10.424;2023-08-31T03:50:00;17.15;;;7.78;;
17965;SDS011;9108;53.204;10.424;2023-08-31T03:52:27;18.45;;;7.78;;
17965;SDS011;9108;53.204;10.424;2023-08-31T03:54:54;15.53;;;7.47;;
17965;SDS011;9108;53.204;10.424;2023-08-31T03:57:22;17.33;;;7.80;;
17965;SDS011;9108;53.204;10.424;2023-08-31T03:59:50;18.92;;;8.20;;
17965;SDS011;9108;53.204;10.424;2023-08-31T04:02:17;17.65;;;8.18;;
17965;SDS011;9108;53.204;10.424;2023-08-31T04:04:44;16.77;;;8.07;;
17965;SDS011;9108;53.204;10.424;2023-08-31T04:07:11;19.88;;;8.50;;
17965;SDS011;9108;53.204;10.424;2023-08-31T04:09:38;17.92;;;8.55;;
17965;SDS011;9108;53.204;10.424;2023-08-31T04:12:06;18.30;;;8.55;;
17965;SDS011;9108;53.204;10.424;2023-08-31T04:14:33;17.73;;;8.13;;
17965;SDS011;9108;53.204;10.424;2023-08-31T04:17:01;18.70;;;7.85;;
17965;SDS011;9108;53.204;10.424;2023-08-31T04:19:30;19.57;;;8.30;;
17965;SDS011;9108;53.204;10.424;2023-08-31T04:21:57;17.58;;;8.30;;
17965;SDS011;9108;53.204;10.424;2023-08-31T04:24:24;20.15;;;8.43;;
17965;SDS011;9108;53.204;10.424;2023-08-31T04:26:51;19.00;;;8.70;;
17965;SDS011;9108;53.204;10.424;2023-08-31T04:29:18;17.35;;;8.43;;
17965;SDS011;9108;53.204;10.424;2023-08-31T04:31:45;20.13;;;8.60;;
17965;SDS011;9108;53.204;10.424;2023-08-31T04:34:14;18.33;;;8.55;;
17965;SDS011;9108;53.204;10.424;2023-08-31T04:36:41;19.13;;;8.40;;
17965;SDS011;9108;53.204;10.424;2023-08-31T04:39:08;20.58;;;8.70;;
17965;SDS011;9108;53.204;10.424;2023-08-31T04:41:36;18.50;;;8.65;;
17965;SDS011;9108;53.204;10.424;2023-08-31T04:44:03;21.57;;;9.10;;
17965;SDS011;9108;53.204;10.424;2023-08-31T04:46:30;18.70;;;9.57;;
17965;SDS011;9108;53.204;10.424;2023-08-31T04:48:59;22.70;;;10.20;;
17965;SDS011;9108;53.204;10.424;2023-08-31T04:51:33;20.30;;;9.43;;
17965;SDS011;9108;53.204;10.424;2023-08-31T04:54:02;18.00;;;9.57;;
17965;SDS011;9108;53.204;10.424;2023-08-31T04:56:30;21.48;;;9.85;;
17965;SDS011;9108;53.204;10.424;2023-08-31T04:58:57;22.85;;;10.05;;
17965;SDS011;9108;53.204;10.424;2023-08-31T05:01:25;20.70;;;10.45;;
17965;SDS011;9108;53.204;10.424;2023-08-31T05:03:52;24.98;;;10.85;;
17965;SDS011;9108;53.204;10.424;2023-08-31T05:06:19;23.38;;;10.55;;
17965;SDS011;9108;53.204;10.424;2023-08-31T05:08:48;22.52;;;10.60;;
17965;SDS011;9108;53.204;10.424;2023-08-31T05:11:15;19.83;;;9.88;;
17965;SDS011;9108;53.204;10.424;2023-08-31T05:13:42;19.40;;;9.88;;
17965;SDS011;9108;53.204;10.424;2023-08-31T05:16:09;22.35;;;10.45;;
17965;SDS011;9108;53.204;10.424;2023-08-31T05:18:37;18.05;;;8.68;;
17965;SDS011;9108;53.204;10.424;2023-08-31T05:21:05;15.43;;;8.57;;
17965;SDS011;9108;53.204;10.424;2023-08-31T05:23:33;14.55;;;7.80;;
17965;SDS011;9108;53.204;10.424;2023-08-31T05:26:01;14.27;;;7.03;;
17965;SDS011;9108;53.204;10.424;2023-08-31T05:28:29;13.45;;;6.93;;
17965;SDS011;9108;53.204;10.424;2023-08-31T05:30:56;13.82;;;6.53;;
17965;SDS011;9108;53.204;10.424;2023-08-31T05:33:24;11.05;;;6.32;;
17965;SDS011;9108;53.204;10.424;2023-08-31T05:35:53;10.48;;;5.90;;
17965;SDS011;9108;53.204;10.424;2023-08-31T05:38:20;11.63;;;5.65;;
17965;SDS011;9108;53.204;10.424;2023-08-31T05:40:48;11.43;;;5.50;;
17965;SDS011;9108;53.204;10.424;2023-08-31T05:43:17;12.35;;;5.53;;
17965;SDS011;9108;53.204;10.424;2023-08-31T05:45:44;12.23;;;5.50;;
17965;SDS011;9108;53.204;10.424;2023-08-31T05:48:11;9.52;;;5.18;;
17965;SDS011;9108;53.204;10.424;2023-08-31T05:50:39;12.43;;;4.70;;
17965;SDS011;9108;53.204;10.424;2023-08-31T05:53:08;8.52;;;4.50;;
17965;SDS011;9108;53.204;10.424;2023-08-31T05:55:35;9.75;;;4.68;;
17965;SDS011;9108;53.204;10.424;2023-08-31T05:58:02;8.85;;;4.13;;
17965;SDS011;9108;53.204;10.424;2023-08-31T06:00:31;8.50;;;4.30;;
17965;SDS011;9108;53.204;10.424;2023-08-31T06:02:58;8.32;;;4.13;;
17965;SDS011;9108;53.204;10.424;2023-08-31T06:05:25;7.77;;;3.87;;
17965;SDS011;9108;53.204;10.424;2023-08-31T06:07:54;7.97;;;3.80;;
17965;SDS011;9108;53.204;10.424;2023-08-31T06:10:21;11.43;;;3.72;;
17965;SDS011;9108;53.204;10.424;2023-08-31T06:12:48;8.25;;;3.70;;
17965;SDS011;9108;53.204;10.424;2023-08-31T06:15:16;7.23;;;3.50;;
17965;SDS011;9108;53.204;10.424;2023-08-31T06:17:44;9.05;;;3.67;;
17965;SDS011;9108;53.204;10.424;2023-08-31T06:20:11;7.22;;;3.47;;
17965;SDS011;9108;53.204;10.424;2023-08-31T06:22:38;5.88;;;3.50;;
17965;SDS011;9108;53.204;10.424;2023-08-31T06:25:06;6.50;;;3.13;;
17965;SDS011;9108;53.204;10.424;2023-08-31T06:27:33;8.83;;;3.83;;
17965;SDS011;9108;53.204;10.424;2023-08-31T06:30:01;8.90;;;3.72;;
17965;SDS011;9108;53.204;10.424;2023-08-31T06:32:28;7.13;;;3.67;;
17965;SDS011;9108;53.204;10.424;2023-08-31T06:34:57;7.53;;;3.72;;
17965;SDS011;9108;53.204;10.424;2023-08-31T06:37:24;7.05;;;4.07;;
17965;SDS011;9108;53.204;10.424;2023-08-31T06:39:51;7.30;;;3.90;;
17965;SDS011;9108;53.204;10.424;2023-08-31T06:42:18;6.63;;;3.67;;
17965;SDS011;9108;53.204;10.424;2023-08-31T06:44:45;10.63;;;4.00;;
17965;SDS011;9108;53.204;10.424;2023-08-31T06:47:12;7.95;;;4.07;;
17965;SDS011;9108;53.204;10.424;2023-08-31T06:49:42;7.15;;;4.10;;
17965;SDS011;9108;53.204;10.424;2023-08-31T06:52:10;9.18;;;3.90;;
17965;SDS011;9108;53.204;10.424;2023-08-31T06:54:38;8.52;;;4.22;;
17965;SDS011;9108;53.204;10.424;2023-08-31T06:57:05;7.30;;;4.10;;
17965;SDS011;9108;53.204;10.424;2023-08-31T06:59:32;7.97;;;4.13;;
17965;SDS011;9108;53.204;10.424;2023-08-31T07:01:59;7.53;;;3.95;;
17965;SDS011;9108;53.204;10.424;2023-08-31T07:04:26;8.50;;;3.83;;
17965;SDS011;9108;53.204;10.424;2023-08-31T07:06:53;7.50;;;3.95;;
17965;SDS011;9108;53.204;10.424;2023-08-31T07:09:22;9.63;;;4.00;;
17965;SDS011;9108;53.204;10.424;2023-08-31T07:11:49;6.72;;;3.80;;
17965;SDS011;9108;53.204;10.424;2023-08-31T07:14:16;8.35;;;4.00;;
17965;SDS011;9108;53.204;10.424;2023-08-31T07:16:44;8.57;;;4.00;;
17965;SDS011;9108;53.204;10.424;2023-08-31T07:19:11;6.43;;;3.50;;
17965;SDS011;9108;53.204;10.424;2023-08-31T07:21:38;6.50;;;3.25;;
17965;SDS011;9108;53.204;10.424;2023-08-31T07:24:06;8.45;;;3.97;;
17965;SDS011;9108;53.204;10.424;2023-08-31T07:26:34;5.45;;;3.60;;
17965;SDS011;9108;53.204;10.424;2023-08-31T07:29:01;6.25;;;3.55;;
17965;SDS011;9108;53.204;10.424;2023-08-31T07:31:29;7.70;;;3.50;;
17965;SDS011;9108;53.204;10.424;2023-08-31T07:33:57;8.48;;;3.25;;
17965;SDS011;9108;53.204;10.424;2023-08-31T07:36:24;6.10;;;3.00;;
17965;SDS011;9108;53.204;10.424;2023-08-31T07:38:51;6.75;;;2.92;;
17965;SDS011;9108;53.204;10.424;2023-08-31T07:41:19;6.05;;;2.80;;
17965;SDS011;9108;53.204;10.424;2023-08-31T07:43:47;4.38;;;2.50;;
17965;SDS011;9108;53.204;10.424;2023-08-31T07:46:15;8.73;;;2.78;;
17965;SDS011;9108;53.204;10.424;2023-08-31T07:48:42;6.07;;;3.00;;
17965;SDS011;9108;53.204;10.424;2023-08-31T07:51:09;6.50;;;3.22;;
17965;SDS011;9108;53.204;10.424;2023-08-31T07:53:36;6.50;;;3.50;;
17965;SDS011;9108;53.204;10.424;2023-08-31T07:56:03;6.00;;;3.45;;
17965;SDS011;9108;53.204;10.424;2023-08-31T07:58:31;6.28;;;3.38;;
17965;SDS011;9108;53.204;10.424;2023-08-31T08:00:59;6.63;;;3.60;;
17965;SDS011;9108;53.204;10.424;2023-08-31T08:03:26;7.85;;;4.20;;
17965;SDS011;9108;53.204;10.424;2023-08-31T08:05:55;9.35;;;4.53;;
17965;SDS011;9108;53.204;10.424;2023-08-31T08:08:22;8.80;;;4.85;;
17965;SDS011;9108;53.204;10.424;2023-08-31T08:10:51;11.05;;;5.00;;
17965;SDS011;9108;53.204;10.424;2023-08-31T08:13:18;9.60;;;5.43;;
17965;SDS011;9108;53.204;10.424;2023-08-31T08:15:46;10.05;;;5.78;;
17965;SDS011;9108;53.204;10.424;2023-08-31T08:18:14;12.25;;;6.07;;
17965;SDS011;9108;53.204;10.424;2023-08-31T08:20:41;11.75;;;6.28;;
17965;SDS011;9108;53.204;10.424;2023-08-31T08:23:08;12.90;;;6.68;;
17965;SDS011;9108;53.204;10.424;2023-08-31T08:25:35;10.88;;;6.38;;
17965;SDS011;9108;53.204;10.424;2023-08-31T08:28:03;9.50;;;5.68;;
17965;SDS011;9108;53.204;10.424;2023-08-31T08:30:30;9.10;;;4.88;;
17965;SDS011;9108;53.204;10.424;2023-08-31T08:32:57;8.80;;;4.30;;
17965;SDS011;9108;53.204;10.424;2023-08-31T08:35:26;7.72;;;4.45;;
17965;SDS011;9108;53.204;10.424;2023-08-31T08:37:53;6.82;;;4.03;;
17965;SDS011;9108;53.204;10.424;2023-08-31T08:40:20;9.02;;;3.78;;
17965;SDS011;9108;53.204;10.424;2023-08-31T08:42:47;7.90;;;3.58;;
17965;SDS011;9108;53.204;10.424;2023-08-31T08:45:16;5.72;;;3.33;;
17965;SDS011;9108;53.204;10.424;2023-08-31T08:47:43;5.88;;;3.00;;
17965;SDS011;9108;53.204;10.424;2023-08-31T08:50:10;5.07;;;2.92;;
17965;SDS011;9108;53.204;10.424;2023-08-31T08:52:39;7.30;;;2.70;;
17965;SDS011;9108;53.204;10.424;2023-08-31T08:55:07;6.25;;;2.60;;
17965;SDS011;9108;53.204;10.424;2023-08-31T08:57:34;4.90;;;2.28;;
17965;SDS011;9108;53.204;10.424;2023-08-31T09:00:02;6.53;;;2.45;;
17965;SDS011;9108;53.204;10.424;2023-08-31T09:02:30;4.20;;;2.40;;
17965;SDS011;9108;53.204;10.424;2023-08-31T09:04:57;5.53;;;2.25;;
17965;SDS011;9108;53.204;10.424;2023-08-31T09:07:24;6.05;;;2.25;;
17965;SDS011;9108;53.204;10.424;2023-08-31T09:09:53;5.85;;;2.20;;
17965;SDS011;9108;53.204;10.424;2023-08-31T09:12:22;7.45;;;2.00;;
17965;SDS011;9108;53.204;10.424;2023-08-31T09:14:56;5.55;;;2.00;;
17965;SDS011;9108;53.204;10.424;2023-08-31T09:17:24;3.53;;;1.73;;
17965;SDS011;9108;53.204;10.424;2023-08-31T09:20:00;5.50;;;1.80;;
17965;SDS011;9108;53.204;10.424;2023-08-31T09:22:28;2.75;;;1.35;;
17965;SDS011;9108;53.204;10.424;2023-08-31T09:24:57;5.13;;;1.45;;
17965;SDS011;9108;53.204;10.424;2023-08-31T09:27:24;4.38;;;1.50;;
17965;SDS011;9108;53.204;10.424;2023-08-31T09:29:53;3.40;;;1.42;;
17965;SDS011;9108;53.204;10.424;2023-08-31T09:32:21;5.33;;;1.50;;
17965;SDS011;9108;53.204;10.424;2023-08-31T09:34:48;3.05;;;1.30;;
17965;SDS011;9108;53.204;10.424;2023-08-31T09:37:16;4.50;;;1.58;;
17965;SDS011;9108;53.204;10.424;2023-08-31T09:39:43;5.63;;;2.20;;
17965;SDS011;9108;53.204;10.424;2023-08-31T09:42:12;6.13;;;2.28;;
17965;SDS011;9108;53.204;10.424;2023-08-31T09:44:40;6.05;;;2.30;;
17965;SDS011;9108;53.204;10.424;2023-08-31T09:47:07;5.70;;;2.60;;
17965;SDS011;9108;53.204;10.424;2023-08-31T09:49:35;5.63;;;2.85;;
17965;SDS011;9108;53.204;10.424;2023-08-31T09:52:03;5.13;;;2.72;;
17965;SDS011;9108;53.204;10.424;2023-08-31T09:54:32;5.10;;;2.95;;
17965;SDS011;9108;53.204;10.424;2023-08-31T09:57:02;5.43;;;2.70;;
17965;SDS011;9108;53.204;10.424;2023-08-31T09:59:30;6.68;;;2.50;;
17965;SDS011;9108;53.204;10.424;2023-08-31T10:01:59;6.40;;;2.70;;
17965;SDS011;9108;53.204;10.424;2023-08-31T10:04:28;6.88;;;3.10;;
17965;SDS011;9108;53.204;10.424;2023-08-31T10:06:57;7.78;;;3.10;;
17965;SDS011;9108;53.204;10.424;2023-08-31T10:09:24;7.05;;;3.10;;
17965;SDS011;9108;53.204;10.424;2023-08-31T10:11:52;5.13;;;2.75;;
17965;SDS011;9108;53.204;10.424;2023-08-31T10:14:20;4.83;;;2.10;;
17965;SDS011;9108;53.204;10.424;2023-08-31T10:16:50;4.82;;;1.77;;
17965;SDS011;9108;53.204;10.424;2023-08-31T10:19:18;4.20;;;1.85;;
17965;SDS011;9108;53.204;10.424;2023-08-31T10:21:45;6.20;;;1.50;;
17965;SDS011;9108;53.204;10.424;2023-08-31T10:24:12;5.40;;;1.63;;
17965;SDS011;9108;53.204;10.424;2023-08-31T10:26:39;4.95;;;1.50;;
17965;SDS011;9108;53.204;10.424;2023-08-31T10:29:06;5.25;;;1.73;;
17965;SDS011;9108;53.204;10.424;2023-08-31T10:31:53;5.13;;;1.80;;
17965;SDS011;9108;53.204;10.424;2023-08-31T10:34:33;4.45;;;1.95;;
17965;SDS011;9108;53.204;10.424;2023-08-31T10:37:01;4.97;;;2.28;;
17965;SDS011;9108;53.204;10.424;2023-08-31T10:39:36;7.60;;;2.30;;
17965;SDS011;9108;53.204;10.424;2023-08-31T10:42:04;4.28;;;2.30;;
17965;SDS011;9108;53.204;10.424;2023-08-31T10:44:31;6.40;;;2.37;;
17965;SDS011;9108;53.204;10.424;2023-08-31T10:47:00;3.53;;;2.03;;
17965;SDS011;9108;53.204;10.424;2023-08-31T10:49:30;6.13;;;2.40;;
17965;SDS011;9108;53.204;10.424;2023-08-31T10:52:00;3.67;;;2.20;;
17965;SDS011;9108;53.204;10.424;2023-08-31T10:54:41;3.83;;;2.13;;
17965;SDS011;9108;53.204;10.424;2023-08-31T10:57:08;4.83;;;2.33;;
17965;SDS011;9108;53.204;10.424;2023-08-31T10:59:41;5.28;;;2.17;;
17965;SDS011;9108;53.204;10.424;2023-08-31T11:02:10;3.53;;;1.80;;
17965;SDS011;9108;53.204;10.424;2023-08-31T11:04:52;3.08;;;1.80;;
17965;SDS011;9108;53.204;10.424;2023-08-31T11:07:19;2.90;;;1.65;;
17965;SDS011;9108;53.204;10.424;2023-08-31T11:09:47;2.53;;;1.70;;
17965;SDS011;9108;53.204;10.424;2023-08-31T11:12:14;4.82;;;1.70;;
17965;SDS011;9108;53.204;10.424;2023-08-31T11:14:41;3.85;;;1.40;;
17965;SDS011;9108;53.204;10.424;2023-08-31T11:17:09;3.08;;;1.30;;
17965;SDS011;9108;53.204;10.424;2023-08-31T11:19:37;3.28;;;1.17;;
17965;SDS011;9108;53.204;10.424;2023-08-31T11:22:05;4.45;;;1.60;;
17965;SDS011;9108;53.204;10.424;2023-08-31T11:24:34;2.63;;;1.38;;
17965;SDS011;9108;53.204;10.424;2023-08-31T11:27:02;2.78;;;1.50;;
17965;SDS011;9108;53.204;10.424;2023-08-31T11:29:29;2.00;;;1.50;;
17965;SDS011;9108;53.204;10.424;2023-08-31T11:31:56;2.22;;;1.30;;
17965;SDS011;9108;53.204;10.424;2023-08-31T11:34:26;1.95;;;1.30;;
17965;SDS011;9108;53.204;10.424;2023-08-31T11:36:53;2.53;;;1.30;;
17965;SDS011;9108;53.204;10.424;2023-08-31T11:39:21;3.47;;;1.67;;
17965;SDS011;9108;53.204;10.424;2023-08-31T11:41:49;2.95;;;1.35;;
17965;SDS011;9108;53.204;10.424;2023-08-31T11:44:16;2.45;;;1.40;;
17965;SDS011;9108;53.204;10.424;2023-08-31T11:46:44;3.08;;;1.67;;
17965;SDS011;9108;53.204;10.424;2023-08-31T11:49:13;3.63;;;1.67;;
17965;SDS011;9108;53.204;10.424;2023-08-31T11:51:42;2.50;;;1.40;;
17965;SDS011;9108;53.204;10.424;2023-08-31T11:54:09;3.33;;;1.83;;
17965;SDS011;9108;53.204;10.424;2023-08-31T11:56:40;3.78;;;1.58;;
17965;SDS011;9108;53.204;10.424;2023-08-31T11:59:10;3.38;;;1.75;;
17965;SDS011;9108;53.204;10.424;2023-08-31T12:01:38;3.10;;;1.60;;
17965;SDS011;9108;53.204;10.424;2023-08-31T12:04:10;2.57;;;1.40;;
17965;SDS011;9108;53.204;10.424;2023-08-31T12:06:37;2.33;;;1.40;;
17965;SDS011;9108;53.204;10.424;2023-08-31T12:09:06;2.95;;;1.50;;
17965;SDS011;9108;53.204;10.424;2023-08-31T12:11:33;3.55;;;1.40;;
17965;SDS011;9108;53.204;10.424;2023-08-31T12:14:00;2.20;;;1.30;;
17965;SDS011;9108;53.204;10.424;2023-08-31T12:16:32;2.70;;;1.35;;
17965;SDS011;9108;53.204;10.424;2023-08-31T12:19:01;3.28;;;1.45;;
17965;SDS011;9108;53.204;10.424;2023-08-31T12:21:29;1.70;;;1.20;;
17965;SDS011;9108;53.204;10.424;2023-08-31T12:23:56;3.13;;;1.30;;
17965;SDS011;9108;53.204;10.424;2023-08-31T12:26:25;2.65;;;1.10;;
17965;SDS011;9108;53.204;10.424;2023-08-31T12:28:53;2.53;;;1.20;;
17965;SDS011;9108;53.204;10.424;2023-08-31T12:31:20;2.50;;;1.23;;
17965;SDS011;9108;53.204;10.424;2023-08-31T12:33:47;2.30;;;1.27;;
17965;SDS011;9108;53.204;10.424;2023-08-31T12:36:14;3.00;;;1.58;;
17965;SDS011;9108;53.204;10.424;2023-08-31T12:38:41;2.30;;;1.00;;
17965;SDS011;9108;53.204;10.424;2023-08-31T12:41:08;2.33;;;1.20;;
17965;SDS011;9108;53.204;10.424;2023-08-31T12:43:37;1.90;;;1.05;;
17965;SDS011;9108;53.204;10.424;2023-08-31T12:46:04;1.92;;;1.00;;
17965;SDS011;9108;53.204;10.424;2023-08-31T12:48:31;1.92;;;0.98;;
17965;SDS011;9108;53.204;10.424;2023-08-31T12:50:59;3.60;;;1.00;;
17965;SDS011;9108;53.204;10.424;2023-08-31T12:53:26;2.10;;;1.10;;
17965;SDS011;9108;53.204;10.424;2023-08-31T12:55:53;2.70;;;1.40;;
17965;SDS011;9108;53.204;10.424;2023-08-31T12:58:20;2.25;;;1.05;;
17965;SDS011;9108;53.204;10.424;2023-08-31T13:00:49;1.75;;;0.93;;
17965;SDS011;9108;53.204;10.424;2023-08-31T13:03:18;3.58;;;1.15;;
17965;SDS011;9108;53.204;10.424;2023-08-31T13:05:45;2.77;;;1.20;;
17965;SDS011;9108;53.204;10.424;2023-08-31T13:08:13;2.30;;;1.02;;
17965;SDS011;9108;53.204;10.424;2023-08-31T13:10:41;2.35;;;1.00;;
17965;SDS011;9108;53.204;10.424;2023-08-31T13:13:08;2.47;;;1.00;;
17965;SDS011;9108;53.204;10.424;2023-08-31T13:15:35;1.57;;;1.00;;
17965;SDS011;9108;53.204;10.424;2023-08-31T13:18:04;2.13;;;1.02;;
17965;SDS011;9108;53.204;10.424;2023-08-31T13:20:31;1.80;;;1.00;;
17965;SDS011;9108;53.204;10.424;2023-08-31T13:22:59;3.50;;;1.00;;
17965;SDS011;9108;53.204;10.424;2023-08-31T13:25:26;2.97;;;0.95;;
17965;SDS011;9108;53.204;10.424;2023-08-31T13:27:53;2.75;;;0.85;;
17965;SDS011;9108;53.204;10.424;2023-08-31T13:30:22;2.20;;;0.80;;
17965;SDS011;9108;53.204;10.424;2023-08-31T13:32:49;1.70;;;0.90;;
17965;SDS011;9108;53.204;10.424;2023-08-31T13:35:17;2.78;;;0.80;;
17965;SDS011;9108;53.204;10.424;2023-08-31T13:37:44;1.63;;;0.90;;
17965;SDS011;9108;53.204;10.424;2023-08-31T13:40:12;2.13;;;0.80;;
17965;SDS011;9108;53.204;10.424;2023-08-31T13:42:47;2.47;;;0.90;;
17965;SDS011;9108;53.204;10.424;2023-08-31T13:45:15;2.10;;;0.73;;
17965;SDS011;9108;53.204;10.424;2023-08-31T13:47:42;1.15;;;0.60;;
17965;SDS011;9108;53.204;10.424;2023-08-31T13:50:12;1.90;;;0.60;;
17965;SDS011;9108;53.204;10.424;2023-08-31T13:52:41;1.50;;;0.50;;
17965;SDS011;9108;53.204;10.424;2023-08-31T13:55:18;2.07;;;0.70;;
17965;SDS011;9108;53.204;10.424;2023-08-31T13:57:46;1.73;;;0.47;;
17965;SDS011;9108;53.204;10.424;2023-08-31T14:00:13;2.95;;;0.65;;
17965;SDS011;9108;53.204;10.424;2023-08-31T14:02:41;3.35;;;0.68;;
17965;SDS011;9108;53.204;10.424;2023-08-31T14:05:09;3.83;;;0.70;;
17965;SDS011;9108;53.204;10.424;2023-08-31T14:07:37;1.55;;;0.70;;
17965;SDS011;9108;53.204;10.424;2023-08-31T14:10:04;2.00;;;0.57;;
17965;SDS011;9108;53.204;10.424;2023-08-31T14:12:33;1.98;;;0.55;;
17965;SDS011;9108;53.204;10.424;2023-08-31T14:15:00;1.20;;;0.50;;
17965;SDS011;9108;53.204;10.424;2023-08-31T14:17:29;2.50;;;0.60;;
17965;SDS011;9108;53.204;10.424;2023-08-31T14:19:58;1.60;;;0.60;;
17965;SDS011;9108;53.204;10.424;2023-08-31T14:22:25;1.95;;;0.40;;
17965;SDS011;9108;53.204;10.424;2023-08-31T14:24:53;3.15;;;0.90;;
17965;SDS011;9108;53.204;10.424;2023-08-31T14:27:20;3.90;;;0.45;;
17965;SDS011;9108;53.204;10.424;2023-08-31T14:29:50;1.65;;;0.50;;
17965;SDS011;9108;53.204;10.424;2023-08-31T14:32:17;1.08;;;0.32;;
17965;SDS011;9108;53.204;10.424;2023-08-31T14:34:44;1.40;;;0.43;;
17965;SDS011;9108;53.204;10.424;2023-08-31T14:37:11;2.33;;;0.50;;
17965;SDS011;9108;53.204;10.424;2023-08-31T14:39:39;1.95;;;0.60;;
17965;SDS011;9108;53.204;10.424;2023-08-31T14:42:06;1.57;;;0.60;;